createdAt,value
2018-07-27T00:01:34.176Z,83.89
2018-07-27T00:04:03.973Z,83.81
2018-07-27T00:06:33.701Z,83.89
2018-07-27T00:09:03.751Z,83.84
2018-07-27T00:11:33.293Z,83.62
2018-07-27T00:14:03.298Z,84.62
2018-07-27T00:16:33.812Z,84.69
2018-07-27T00:19:03.862Z,84.33
2018-07-27T00:21:33.846Z,84.74
2018-07-27T00:24:03.497Z,85.04
2018-07-27T00:26:33.355Z,85.21
2018-07-27T00:29:03.485Z,85.79
2018-07-27T00:31:33.010Z,86.26
2018-07-27T00:34:02.491Z,86.52
2018-07-27T00:36:32.234Z,86.23
2018-07-27T00:39:01.994Z,86.26
2018-07-27T00:41:31.524Z,86.54
2018-07-27T00:44:01.341Z,87.12
2018-07-27T00:46:31.073Z,87.36
2018-07-27T00:49:01.301Z,87.92
2018-07-27T00:51:30.956Z,87.52
2018-07-27T00:54:00.703Z,88.39
2018-07-27T00:56:30.494Z,88.14
2018-07-27T00:59:00.250Z,88.37
2018-07-27T01:01:30.017Z,88.46
2018-07-27T01:03:59.785Z,88.49
2018-07-27T01:06:29.523Z,88.36
2018-07-27T01:08:58.980Z,88.34
2018-07-27T01:11:29.433Z,88.14
2018-07-27T01:13:59.232Z,88.19
2018-07-27T01:16:28.996Z,87.50
2018-07-27T01:18:58.728Z,87.91
2018-07-27T01:21:28.693Z,87.68
2018-07-27T01:23:58.413Z,87.25
2018-07-27T01:26:28.146Z,87.34
2018-07-27T01:28:58.028Z,87.58
2018-07-27T01:31:27.735Z,87.60
2018-07-27T01:33:57.462Z,87.76
2018-07-27T01:36:27.180Z,87.34
2018-07-27T01:38:56.988Z,87.45
2018-07-27T01:41:26.854Z,88.09
2018-07-27T01:43:56.569Z,87.28
2018-07-27T01:46:26.713Z,87.38
2018-07-27T01:48:56.437Z,87.48
2018-07-27T01:51:26.175Z,88.24
2018-07-27T01:53:55.924Z,87.88
2018-07-27T01:56:25.638Z,87.96
2018-07-27T01:58:55.344Z,88.13
2018-07-27T02:01:25.112Z,88.29
2018-07-27T02:03:54.833Z,88.65
2018-07-27T02:06:24.619Z,88.61
2018-07-27T02:08:54.347Z,88.83
2018-07-27T02:11:23.804Z,89.19
2018-07-27T02:13:53.568Z,89.02
2018-07-27T02:16:23.329Z,88.62
2018-07-27T02:18:53.081Z,88.68
2018-07-27T02:21:22.856Z,88.75
2018-07-27T02:23:52.588Z,89.02
2018-07-27T02:26:22.793Z,89.54
2018-07-27T02:28:52.524Z,89.34
2018-07-27T02:31:22.278Z,88.75
2018-07-27T02:33:52.033Z,88.96
2018-07-27T02:36:22.006Z,89.59
2018-07-27T02:38:51.728Z,89.36
2018-07-27T02:41:21.457Z,89.43
2018-07-27T02:43:51.321Z,90.07
2018-07-27T02:46:21.041Z,90.45
2018-07-27T02:48:51.161Z,89.59
2018-07-27T02:51:21.092Z,88.95
2018-07-27T02:53:50.972Z,88.91
2018-07-27T02:56:20.753Z,88.75
2018-07-27T02:58:50.520Z,88.98
2018-07-27T03:01:20.608Z,88.57
2018-07-27T03:03:50.338Z,88.11
2018-07-27T03:06:19.780Z,88.44
2018-07-27T03:08:49.524Z,88.86
2018-07-27T03:11:19.341Z,89.04
2018-07-27T03:13:49.056Z,89.08
2018-07-27T03:16:18.867Z,89.56
2018-07-27T03:18:48.332Z,89.14
2018-07-27T03:21:18.092Z,88.59
2018-07-27T03:23:47.861Z,88.63
2018-07-27T03:26:17.377Z,88.72
2018-07-27T03:28:47.100Z,88.68
2018-07-27T03:31:16.846Z,89.13
2018-07-27T03:33:46.614Z,88.90
2018-07-27T03:36:16.436Z,88.14
2018-07-27T03:38:46.174Z,88.30
2018-07-27T03:41:16.252Z,88.20
2018-07-27T03:43:46.018Z,88.42
2018-07-27T03:46:15.798Z,88.49
2018-07-27T03:48:45.872Z,88.44
2018-07-27T03:51:15.657Z,88.10
2018-07-27T03:53:45.384Z,88.05
2018-07-27T03:56:15.104Z,88.18
2018-07-27T03:58:44.868Z,87.47
2018-07-27T04:01:14.573Z,87.86
2018-07-27T04:03:44.300Z,88.00
2018-07-27T04:06:14.021Z,86.91
2018-07-27T04:08:43.762Z,86.62
2018-07-27T04:11:13.522Z,86.84
2018-07-27T04:13:43.285Z,86.72
2018-07-27T04:16:13.249Z,86.52
2018-07-27T04:18:43.044Z,84.88
2018-07-27T04:21:12.769Z,84.68
2018-07-27T04:23:42.516Z,84.46
2018-07-27T04:26:12.309Z,84.83
2018-07-27T04:28:42.208Z,83.96
2018-07-27T04:31:12.000Z,83.29
2018-07-27T04:33:41.742Z,83.60
2018-07-27T04:36:11.859Z,82.36
2018-07-27T04:38:42.261Z,82.04
2018-07-27T04:44:12.096Z,81.63
2018-07-27T04:46:41.894Z,81.37
2018-07-27T04:49:11.760Z,80.23
2018-07-27T04:51:41.535Z,80.50
2018-07-27T04:54:11.273Z,80.36
2018-07-27T04:56:41.093Z,79.78
2018-07-27T04:59:11.062Z,79.07
2018-07-27T05:01:40.847Z,79.11
2018-07-27T05:04:11.382Z,78.96
2018-07-27T05:06:41.146Z,79.43
2018-07-27T05:09:15.977Z,78.91
2018-07-27T05:24:00.793Z,76.47
2018-07-27T05:26:31.360Z,76.34
2018-07-27T05:29:01.728Z,75.68
2018-07-27T05:31:32.137Z,75.98
2018-07-27T05:34:02.455Z,75.71
2018-07-27T05:36:32.828Z,75.97
2018-07-27T05:39:03.189Z,75.03
2018-07-27T05:41:33.245Z,74.51
2018-07-27T05:44:03.952Z,74.81
2018-07-27T05:46:34.615Z,74.93
2018-07-27T05:49:05.433Z,74.39
2018-07-27T05:51:36.125Z,73.81
2018-07-27T05:54:06.798Z,73.52
2018-07-27T05:56:37.188Z,72.32
2018-07-27T05:59:07.550Z,70.21
2018-07-27T06:01:37.949Z,70.25
2018-07-27T06:04:08.297Z,69.32
2018-07-27T06:06:38.600Z,69.01
2018-07-27T06:09:10.654Z,68.28
2018-07-27T06:11:40.944Z,67.54
2018-07-27T06:14:11.487Z,65.45
2018-07-27T06:16:41.849Z,64.82
2018-07-27T06:19:12.193Z,62.89
2018-07-27T06:21:42.669Z,61.89
2018-07-27T06:24:12.768Z,59.99
2018-07-27T06:26:43.030Z,57.76
2018-07-27T06:29:13.102Z,54.53
2018-07-27T06:31:44.057Z,51.79
2018-07-27T06:34:14.501Z,49.26
2018-07-27T06:36:44.804Z,46.90
2018-07-27T06:39:15.244Z,44.81
2018-07-27T06:41:45.738Z,43.52
2018-07-27T06:44:16.165Z,43.50
2018-07-27T06:46:46.457Z,44.13
2018-07-27T06:49:16.768Z,44.86
2018-07-27T06:51:47.076Z,45.65
2018-07-27T06:54:17.410Z,45.69
2018-07-27T06:56:47.662Z,45.69
2018-07-27T06:59:17.949Z,44.01
2018-07-27T07:01:48.224Z,41.93
2018-07-27T07:04:18.552Z,38.71
2018-07-27T07:06:48.866Z,36.98
2018-07-27T07:09:19.144Z,36.42
2018-07-27T07:11:49.460Z,36.75
2018-07-27T07:14:19.745Z,37.26
2018-07-27T07:16:50.082Z,36.76
2018-07-27T07:19:20.353Z,37.14
2018-07-27T07:21:50.360Z,37.21
2018-07-27T07:24:20.360Z,36.33
2018-07-27T07:26:50.351Z,36.65
2018-07-27T07:29:20.373Z,36.29
2018-07-27T07:31:50.684Z,35.91
2018-07-27T07:34:20.984Z,36.92
2018-07-27T07:36:51.269Z,36.60
2018-07-27T07:39:21.634Z,36.94
2018-07-27T07:41:51.952Z,37.36
2018-07-27T07:44:22.372Z,38.67
2018-07-27T07:46:52.732Z,37.17
2018-07-27T07:49:23.077Z,35.90
2018-07-27T07:51:53.598Z,35.45
2018-07-27T07:54:23.890Z,36.58
2018-07-27T07:56:54.312Z,35.91
2018-07-27T07:59:24.611Z,34.84
2018-07-27T08:01:54.929Z,34.29
2018-07-27T08:04:25.248Z,33.89
2018-07-27T08:07:01.703Z,32.28
2018-07-27T08:09:31.773Z,33.06
2018-07-27T08:12:01.833Z,31.44
2018-07-27T08:14:31.833Z,31.36
2018-07-27T08:17:01.834Z,31.60
2018-07-27T08:19:32.129Z,32.19
2018-07-27T08:22:02.462Z,34.58
2018-07-27T08:24:32.986Z,36.74
2018-07-27T08:27:05.369Z,37.78
2018-07-27T08:29:39.864Z,37.34
2018-07-27T08:32:09.980Z,38.20
2018-07-27T08:34:40.377Z,37.38
2018-07-27T08:37:11.160Z,38.06
2018-07-27T08:39:42.977Z,37.28
2018-07-27T08:42:13.488Z,37.34
2018-07-27T08:44:44.059Z,37.11
2018-07-27T08:47:14.449Z,37.58
2018-07-27T08:49:45.262Z,37.69
2018-07-27T08:52:15.836Z,37.45
2018-07-27T08:54:46.202Z,36.89
2018-07-27T08:57:16.520Z,34.99
2018-07-27T08:59:46.924Z,34.35
2018-07-27T09:02:17.144Z,34.34
2018-07-27T09:04:47.436Z,34.29
2018-07-27T09:07:17.788Z,34.44
2018-07-27T09:09:47.919Z,34.63
2018-07-27T09:12:18.322Z,36.10
2018-07-27T09:14:48.621Z,36.91
2018-07-27T09:17:19.076Z,36.86
2018-07-27T09:19:49.562Z,37.62
2018-07-27T09:22:20.237Z,38.95
2018-07-27T09:24:50.702Z,38.44
2018-07-27T09:27:21.094Z,38.02
2018-07-27T09:29:51.372Z,39.41
2018-07-27T09:32:21.676Z,39.32
2018-07-27T09:34:51.984Z,38.96
2018-07-27T09:37:22.265Z,39.27
2018-07-27T09:39:52.618Z,40.42
2018-07-27T09:42:22.929Z,40.17
2018-07-27T09:44:53.377Z,38.92
2018-07-27T09:47:23.705Z,38.27
2018-07-27T09:49:53.737Z,37.36
2018-07-27T09:52:24.037Z,36.80
2018-07-27T09:54:54.345Z,36.22
2018-07-27T09:57:24.966Z,35.79
2018-07-27T09:59:55.966Z,34.48
2018-07-27T10:02:26.255Z,33.93
2018-07-27T10:04:56.584Z,34.92
2018-07-27T10:07:26.868Z,35.92
2018-07-27T10:09:57.190Z,36.09
2018-07-27T10:12:27.473Z,35.32
2018-07-27T10:14:57.753Z,35.92
2018-07-27T10:17:28.034Z,36.08
2018-07-27T10:19:58.308Z,37.90
2018-07-27T10:22:28.633Z,38.49
2018-07-27T10:24:58.928Z,39.79
2018-07-27T10:27:29.265Z,39.16
2018-07-27T10:29:59.540Z,38.87
2018-07-27T10:32:29.854Z,38.77
2018-07-27T10:35:00.137Z,37.61
2018-07-27T10:37:31.156Z,38.98
2018-07-27T10:40:01.613Z,39.50
2018-07-27T10:42:31.928Z,39.56
2018-07-27T10:45:02.345Z,39.18
2018-07-27T10:47:32.641Z,37.24
2018-07-27T10:50:03.452Z,37.21
2018-07-27T10:52:33.868Z,38.95
2018-07-27T10:55:04.644Z,39.51
2018-07-27T10:57:34.922Z,40.91
2018-07-27T11:00:09.869Z,42.66
2018-07-27T11:02:40.464Z,44.96
2018-07-27T11:05:11.509Z,47.84
2018-07-27T11:07:42.174Z,46.67
2018-07-27T11:10:12.952Z,49.01
2018-07-27T11:12:43.108Z,49.47
2018-07-27T11:15:13.460Z,51.56
2018-07-27T11:17:44.044Z,52.02
2018-07-27T11:20:14.957Z,52.75
2018-07-27T11:22:45.428Z,53.61
2018-07-27T11:25:15.797Z,54.58
2018-07-27T11:27:46.065Z,53.61
2018-07-27T11:30:16.396Z,54.80
2018-07-27T11:32:46.680Z,54.42
2018-07-27T11:35:16.980Z,54.74
2018-07-27T11:37:47.295Z,54.50
2018-07-27T11:40:17.936Z,54.42
2018-07-27T11:42:48.260Z,54.16
2018-07-27T11:45:18.744Z,53.81
2018-07-27T11:47:49.041Z,52.59
2018-07-27T11:50:19.372Z,51.79
2018-07-27T11:52:49.648Z,50.96
2018-07-27T11:55:19.956Z,52.22
2018-07-27T11:57:50.236Z,51.93
2018-07-27T12:00:20.530Z,49.58
2018-07-27T12:02:50.877Z,49.52
2018-07-27T12:05:21.153Z,48.23
2018-07-27T12:07:51.481Z,48.00
2018-07-27T12:10:21.764Z,47.18
2018-07-27T12:12:52.085Z,47.83
2018-07-27T12:15:22.372Z,47.20
2018-07-27T12:17:52.672Z,46.86
2018-07-27T12:20:22.985Z,45.72
2018-07-27T12:22:53.280Z,44.60
2018-07-27T12:25:23.319Z,45.53
2018-07-27T12:27:53.603Z,47.79
2018-07-27T12:30:23.708Z,47.26
2018-07-27T12:32:53.748Z,46.83
2018-07-27T12:35:24.076Z,46.17
2018-07-27T12:37:54.401Z,47.52
2018-07-27T12:40:25.328Z,46.85
2018-07-27T12:42:55.645Z,47.73
2018-07-27T12:45:26.152Z,49.40
2018-07-27T12:47:56.542Z,52.78
2018-07-27T12:50:26.909Z,77.02
2018-07-27T12:52:57.204Z,85.82
2018-07-27T12:55:27.472Z,91.50
2018-07-27T12:57:57.724Z,94.80
2018-07-27T13:00:28.013Z,97.24
2018-07-27T13:02:58.720Z,97.55
2018-07-27T13:05:28.663Z,98.39
2018-07-27T13:07:58.320Z,99.65
2018-07-27T13:10:28.648Z,99.08
2018-07-27T13:12:58.905Z,99.80
2018-07-27T13:15:28.666Z,100.00
2018-07-27T13:17:58.940Z,99.94
2018-07-27T13:20:48.160Z,100.00
2018-07-27T13:23:18.987Z,100.00
2018-07-27T13:28:49.868Z,100.00
2018-07-27T13:31:23.927Z,100.00
2018-07-27T13:34:06.225Z,100.00
2018-07-27T13:36:35.732Z,100.00
2018-07-27T13:39:08.111Z,100.00
2018-07-27T13:41:37.939Z,100.00
2018-07-27T13:44:07.661Z,100.00
2018-07-27T13:46:37.123Z,100.00
2018-07-27T13:49:06.950Z,100.00
2018-07-27T13:51:36.944Z,100.00
2018-07-27T13:54:07.510Z,100.00
2018-07-27T13:56:37.631Z,100.00
2018-07-27T13:59:07.673Z,100.00
2018-07-27T14:01:37.384Z,100.00
2018-07-27T14:04:07.203Z,100.00
2018-07-27T14:06:37.387Z,100.00
2018-07-27T14:09:10.077Z,100.00
2018-07-27T14:11:41.377Z,100.00
2018-07-27T14:14:12.113Z,100.00
2018-07-27T14:16:42.934Z,100.00
2018-07-27T14:19:13.556Z,100.00
2018-07-27T14:21:44.316Z,100.00
2018-07-27T14:24:15.069Z,100.00
2018-07-27T14:26:45.268Z,100.00
2018-07-27T14:29:15.663Z,100.00
2018-07-27T14:31:46.234Z,100.00
2018-07-27T14:34:16.522Z,100.00
2018-07-27T14:37:05.179Z,100.00
2018-07-27T14:39:42.018Z,100.00
2018-07-27T14:42:13.224Z,100.00
2018-07-27T14:44:44.604Z,100.00
2018-07-27T14:47:15.057Z,100.00
2018-07-27T14:49:45.772Z,100.00
2018-07-27T14:52:17.092Z,100.00
2018-07-27T14:54:48.099Z,100.00
2018-07-27T14:57:19.386Z,100.00
2018-07-27T14:59:50.581Z,100.00
2018-07-27T15:02:21.569Z,100.00
2018-07-27T15:04:51.951Z,100.00
2018-07-27T15:07:22.560Z,100.00
2018-07-27T15:09:52.838Z,100.00
2018-07-27T15:12:23.907Z,100.00
2018-07-27T15:14:54.180Z,100.00
2018-07-27T15:17:24.508Z,100.00
2018-07-27T15:19:54.865Z,100.00
2018-07-27T15:22:25.236Z,100.00
2018-07-27T15:24:55.553Z,100.00
2018-07-27T15:27:25.904Z,100.00
2018-07-27T15:29:56.301Z,100.00
2018-07-27T15:32:26.697Z,100.00
2018-07-27T15:34:57.144Z,100.00
2018-07-27T15:37:27.437Z,100.00
2018-07-27T15:39:57.834Z,100.00
2018-07-27T15:42:28.132Z,100.00
2018-07-27T15:44:58.480Z,100.00
2018-07-27T15:47:28.833Z,100.00
2018-07-27T15:49:59.112Z,100.00
2018-07-27T15:52:29.656Z,100.00
2018-07-27T15:55:00.028Z,100.00
2018-07-27T15:57:30.584Z,100.00
2018-07-27T16:00:01.257Z,100.00
2018-07-27T16:02:31.943Z,100.00
2018-07-27T16:05:02.488Z,100.00
2018-07-27T16:07:32.552Z,100.00
2018-07-27T16:10:03.223Z,100.00
2018-07-27T16:12:33.743Z,100.00
2018-07-27T16:15:04.190Z,100.00
2018-07-27T16:17:34.704Z,100.00
2018-07-27T16:20:05.439Z,100.00
2018-07-27T16:22:35.886Z,100.00
2018-07-27T16:25:06.384Z,100.00
2018-07-27T16:27:36.845Z,100.00
2018-07-27T16:30:07.330Z,100.00
2018-07-27T16:32:37.677Z,100.00
2018-07-27T16:35:09.069Z,100.00
2018-07-27T16:37:39.446Z,100.00
2018-07-27T16:40:10.101Z,99.85
2018-07-27T16:42:40.817Z,98.48
2018-07-27T16:45:11.285Z,96.69
2018-07-27T16:47:41.681Z,97.13
2018-07-27T16:50:12.342Z,97.85
2018-07-27T16:52:42.805Z,99.15
2018-07-27T16:55:13.389Z,99.48
2018-07-27T16:57:43.833Z,99.29
2018-07-27T17:00:14.389Z,98.86
2018-07-27T17:02:45.021Z,97.96
2018-07-27T17:05:15.554Z,97.27
2018-07-27T17:07:46.101Z,96.58
2018-07-27T17:10:16.423Z,96.59
2018-07-27T17:12:46.941Z,97.47
2018-07-27T17:15:17.682Z,97.33
2018-07-27T17:17:48.116Z,98.20
2018-07-27T17:20:18.560Z,98.80
2018-07-27T17:22:48.867Z,96.85
2018-07-27T17:25:19.561Z,97.63
2018-07-27T17:27:50.081Z,96.37
2018-07-27T17:30:20.474Z,96.60
2018-07-27T17:32:50.886Z,95.83
2018-07-27T17:35:21.256Z,96.95
2018-07-27T17:37:51.766Z,95.85
2018-07-27T17:40:22.266Z,96.05
2018-07-27T17:42:52.631Z,96.71
2018-07-27T17:45:23.281Z,96.70
2018-07-27T17:47:53.708Z,97.66
2018-07-27T17:50:27.024Z,97.84
2018-07-27T17:52:59.242Z,98.52
2018-07-27T17:55:29.709Z,97.90
2018-07-27T17:58:00.941Z,98.41
2018-07-27T18:00:31.313Z,98.81
2018-07-27T18:03:01.892Z,99.71
2018-07-27T18:05:33.165Z,99.39
2018-07-27T18:08:03.641Z,98.31
2018-07-27T18:10:33.914Z,98.37
2018-07-27T18:13:04.271Z,99.22
2018-07-27T18:15:35.049Z,99.51
2018-07-27T18:18:06.614Z,99.66
2018-07-27T18:20:37.425Z,99.90
2018-07-27T18:23:07.734Z,98.87
2018-07-27T18:25:38.261Z,99.92
2018-07-27T18:28:08.669Z,99.42
2018-07-27T18:30:39.213Z,98.78
2018-07-27T18:33:09.613Z,98.55
2018-07-27T18:35:39.944Z,99.83
2018-07-27T18:38:10.358Z,100.00
2018-07-27T18:40:40.661Z,100.00
2018-07-27T18:43:11.046Z,99.98
2018-07-27T18:45:41.390Z,99.27
2018-07-27T18:48:11.918Z,99.57
2018-07-27T18:50:42.313Z,99.55
2018-07-27T18:53:13.048Z,100.00
2018-07-27T18:55:43.423Z,99.01
2018-07-27T18:58:13.851Z,98.67
2018-07-27T19:00:44.369Z,99.07
2018-07-27T19:03:14.777Z,98.86
2018-07-27T19:05:45.670Z,98.50
2018-07-27T19:08:16.073Z,99.20
2018-07-27T19:10:46.217Z,98.78
2018-07-27T19:13:16.203Z,99.09
2018-07-27T19:15:46.041Z,99.48
2018-07-27T19:18:16.596Z,99.24
2018-07-27T19:20:46.466Z,100.00
2018-07-27T19:23:16.234Z,100.00
2018-07-27T19:25:46.306Z,100.00
2018-07-27T19:28:16.669Z,100.00
2018-07-27T19:30:47.079Z,99.91
2018-07-27T19:33:17.793Z,99.80
2018-07-27T19:35:47.661Z,99.74
2018-07-27T19:38:17.416Z,99.22
2018-07-27T19:43:18.277Z,99.03
2018-07-27T19:45:48.112Z,99.42
2018-07-27T19:48:17.937Z,98.70
2018-07-27T19:53:16.569Z,99.07
2018-07-27T19:55:46.286Z,97.91
2018-07-27T19:58:16.380Z,97.99
2018-07-27T20:00:46.383Z,98.19
2018-07-27T20:03:16.287Z,98.74
2018-07-27T20:05:46.347Z,99.12
2018-07-27T20:08:16.448Z,98.32
2018-07-27T20:10:46.762Z,97.94
2018-07-27T20:13:16.565Z,98.32
2018-07-27T20:15:46.321Z,97.91
2018-07-27T20:18:16.089Z,97.93
2018-07-27T20:20:46.169Z,98.31
2018-07-27T20:23:16.023Z,98.56
2018-07-27T20:25:46.105Z,97.88
2018-07-27T20:28:15.909Z,98.47
2018-07-27T20:30:45.968Z,98.72
2018-07-27T20:33:15.841Z,98.12
2018-07-27T20:35:45.888Z,97.77
2018-07-27T20:38:15.321Z,97.72
2018-07-27T20:40:45.180Z,97.43
2018-07-27T20:43:14.972Z,97.38
2018-07-27T20:45:45.105Z,96.56
2018-07-27T20:48:14.856Z,96.97
2018-07-27T20:50:45.129Z,97.48
2018-07-27T20:53:14.857Z,97.36
2018-07-27T20:55:48.302Z,98.27
2018-07-27T20:58:18.113Z,97.65
2018-07-27T21:00:47.846Z,97.72
2018-07-27T21:03:17.615Z,98.42
2018-07-27T21:05:47.353Z,97.54
2018-07-27T21:08:17.163Z,97.48
2018-07-27T21:10:47.445Z,97.17
2018-07-27T21:13:17.371Z,96.51
2018-07-27T21:15:47.157Z,96.54
2018-07-27T21:18:17.120Z,96.78
2018-07-27T21:20:46.901Z,97.10
2018-07-27T21:23:16.737Z,97.01
2018-07-27T21:25:47.388Z,97.48
2018-07-27T21:28:17.351Z,97.10
2018-07-27T21:30:47.190Z,98.33
2018-07-27T21:33:16.987Z,98.80
2018-07-27T21:35:46.799Z,98.26
2018-07-27T21:38:16.567Z,98.63
2018-07-27T21:40:46.733Z,98.83
2018-07-27T21:43:16.784Z,98.77
2018-07-27T21:45:46.758Z,98.76
2018-07-27T21:48:16.704Z,97.94
2018-07-27T21:50:46.893Z,98.64
2018-07-27T21:53:16.641Z,98.38
2018-07-27T21:55:46.497Z,97.99
2018-07-27T21:58:17.193Z,97.25
2018-07-27T22:00:46.957Z,97.19
2018-07-27T22:03:16.459Z,97.50
2018-07-27T22:05:46.441Z,98.26
2018-07-27T22:08:16.177Z,97.75
2018-07-27T22:10:46.284Z,97.99
2018-07-27T22:13:16.114Z,97.58
2018-07-27T22:15:46.843Z,97.49
2018-07-27T22:18:16.640Z,98.03
2018-07-27T22:20:47.046Z,97.83
2018-07-27T22:23:17.933Z,98.57
2018-07-27T22:25:47.405Z,98.04
2018-07-27T22:28:17.373Z,98.21
2018-07-27T22:30:47.160Z,98.67
2018-07-27T22:33:16.893Z,98.70
2018-07-27T22:35:46.890Z,97.85
2018-07-27T22:38:17.292Z,97.90
2018-07-27T22:40:47.171Z,98.29
2018-07-27T22:43:17.232Z,98.71
2018-07-27T22:45:47.105Z,98.44
2018-07-27T22:48:16.828Z,98.61
2018-07-27T22:50:46.824Z,98.25
2018-07-27T22:53:16.361Z,97.68
2018-07-27T22:55:46.465Z,98.10
2018-07-27T22:58:16.352Z,97.86
2018-07-27T23:00:46.501Z,97.46
2018-07-27T23:03:16.332Z,97.20
2018-07-27T23:05:46.585Z,97.24
2018-07-27T23:08:16.313Z,97.23
2018-07-27T23:10:46.430Z,97.52
2018-07-27T23:13:16.163Z,97.45
2018-07-27T23:15:46.134Z,97.74
2018-07-27T23:18:15.974Z,97.59
2018-07-27T23:20:45.861Z,97.37
2018-07-27T23:23:15.704Z,97.64
2018-07-27T23:25:45.789Z,97.73
2018-07-27T23:28:15.653Z,97.87
2018-07-27T23:30:45.633Z,97.99
2018-07-27T23:33:15.353Z,98.25
2018-07-27T23:35:45.640Z,98.41
2018-07-27T23:38:15.839Z,97.88
2018-07-27T23:40:46.037Z,97.70
2018-07-27T23:43:15.881Z,97.45
2018-07-27T23:45:45.956Z,97.35
2018-07-27T23:48:15.721Z,97.47
2018-07-27T23:50:45.934Z,97.48
2018-07-27T23:53:15.726Z,97.40
2018-07-27T23:55:46.096Z,97.41
2018-07-27T23:58:15.872Z,97.23
